createdAt,value
2018-03-02T00:00:23.895Z,-0.60
2018-03-02T00:02:52.393Z,-0.60
2018-03-02T00:05:20.671Z,-0.60
2018-03-02T00:07:52.303Z,-0.60
2018-03-02T00:10:20.595Z,-0.60
2018-03-02T00:12:51.591Z,-0.60
2018-03-02T00:15:20.002Z,-0.60
2018-03-02T00:17:48.292Z,-0.60
2018-03-02T00:20:16.597Z,-0.60
2018-03-02T00:22:47.056Z,-0.60
2018-03-02T00:25:18.066Z,-0.60
2018-03-02T00:27:53.223Z,-0.70
2018-03-02T00:30:27.270Z,-0.70
2018-03-02T00:32:57.123Z,-0.60
2018-03-02T00:35:26.116Z,-0.60
2018-03-02T00:37:54.935Z,-0.60
2018-03-02T00:40:23.388Z,-0.60
2018-03-02T00:43:00.223Z,-0.60
2018-03-02T00:45:29.209Z,-0.60
2018-03-02T00:47:57.900Z,-0.60
2018-03-02T00:50:26.198Z,-0.60
2018-03-02T00:52:56.279Z,-0.60
2018-03-02T00:55:24.579Z,-0.50
2018-03-02T00:58:08.246Z,-0.40
2018-03-02T01:00:39.788Z,-0.50
2018-03-02T01:03:13.117Z,-0.50
2018-03-02T01:05:42.672Z,-0.50
2018-03-02T01:08:10.943Z,-0.50
2018-03-02T01:10:40.264Z,-0.40
2018-03-02T01:13:08.567Z,-0.40
2018-03-02T01:15:38.755Z,-0.40
2018-03-02T01:18:09.772Z,-0.40
2018-03-02T01:20:39.593Z,-0.40
2018-03-02T01:23:15.081Z,-0.30
2018-03-02T01:25:46.196Z,-0.30
2018-03-02T01:28:50.192Z,-0.30
2018-03-02T01:31:25.615Z,-0.30
2018-03-02T01:34:00.461Z,-0.30
2018-03-02T01:36:31.241Z,-0.30
2018-03-02T01:38:59.591Z,-0.20
2018-03-02T01:41:30.515Z,-0.20
2018-03-02T01:43:58.960Z,-0.30
2018-03-02T01:46:28.435Z,-0.30
2018-03-02T01:48:58.291Z,-0.20
2018-03-02T01:51:44.038Z,-0.20
2018-03-02T01:54:12.733Z,-0.30
2018-03-02T01:56:43.077Z,-0.20
2018-03-02T01:59:12.836Z,-0.20
2018-03-02T02:01:42.810Z,-0.30
2018-03-02T02:04:14.403Z,-0.20
2018-03-02T02:06:43.325Z,-0.20
2018-03-02T02:09:14.947Z,-0.20
2018-03-02T02:11:44.220Z,-0.20
2018-03-02T02:14:15.751Z,-0.20
2018-03-02T02:16:45.929Z,-0.20
2018-03-02T02:19:14.605Z,-0.20
2018-03-02T02:21:42.940Z,-0.20
2018-03-02T02:24:11.636Z,-0.20
2018-03-02T02:26:41.238Z,-0.20
2018-03-02T02:32:56.176Z,-0.30
2018-03-02T02:35:24.664Z,-0.20
2018-03-02T02:37:55.195Z,-0.30
2018-03-02T02:40:30.346Z,-0.30
2018-03-02T02:43:03.331Z,-0.20
2018-03-02T02:45:40.151Z,-0.30
2018-03-02T02:48:10.728Z,-0.30
2018-03-02T02:50:39.026Z,-0.30
2018-03-02T02:53:07.986Z,-0.30
2018-03-02T02:55:36.824Z,-0.30
2018-03-02T02:58:06.447Z,-0.30
2018-03-02T03:00:34.785Z,-0.40
2018-03-02T03:03:03.236Z,-0.30
2018-03-02T03:05:34.164Z,-0.40
2018-03-02T03:08:02.641Z,-0.40
2018-03-02T03:10:31.194Z,-0.40
2018-03-02T03:12:59.482Z,-0.40
2018-03-02T03:15:28.340Z,-0.40
2018-03-02T03:17:58.612Z,-0.40
2018-03-02T03:20:26.908Z,-0.40
2018-03-02T03:22:56.432Z,-0.40
2018-03-02T03:25:24.727Z,-0.40
2018-03-02T03:27:57.161Z,-0.40
2018-03-02T03:31:08.600Z,-0.40
2018-03-02T03:33:42.382Z,-0.50
2018-03-02T03:36:18.430Z,-0.50
2018-03-02T03:38:48.078Z,-0.40
2018-03-02T03:41:17.010Z,-0.50
2018-03-02T03:43:45.479Z,-0.40
2018-03-02T03:46:13.774Z,-0.50
2018-03-02T03:48:46.190Z,-0.50
2018-03-02T03:51:15.486Z,-0.50
2018-03-02T03:53:48.884Z,-0.50
2018-03-02T03:56:25.291Z,-0.40
2018-03-02T03:58:55.214Z,-0.50
2018-03-02T04:01:23.534Z,-0.50
2018-03-02T04:03:52.811Z,-0.50
2018-03-02T04:06:22.327Z,-0.50
2018-03-02T04:08:52.414Z,-0.50
2018-03-02T04:11:20.725Z,-0.50
2018-03-02T04:13:58.737Z,-0.50
2018-03-02T04:17:08.420Z,-0.50
2018-03-02T04:19:38.875Z,-0.50
2018-03-02T04:22:07.772Z,-0.60
2018-03-02T04:24:36.110Z,-0.60
2018-03-02T04:27:05.368Z,-0.50
2018-03-02T04:29:34.947Z,-0.50
2018-03-02T04:32:04.010Z,-0.60
2018-03-02T04:34:39.285Z,-0.60
2018-03-02T04:37:08.164Z,-0.60
2018-03-02T04:39:36.446Z,-0.60
2018-03-02T04:42:04.775Z,-0.60
2018-03-02T04:44:33.073Z,-0.60
2018-03-02T04:47:37.564Z,-0.60
2018-03-02T04:50:16.120Z,-0.60
2018-03-02T04:52:44.545Z,-0.60
2018-03-02T04:55:16.995Z,-0.60
2018-03-02T04:57:52.027Z,-0.60
2018-03-02T05:00:20.478Z,-0.70
2018-03-02T05:03:11.065Z,-0.70
2018-03-02T05:05:40.334Z,-0.70
2018-03-02T05:08:11.047Z,-0.70
2018-03-02T05:10:46.427Z,-0.70
2018-03-02T05:13:21.684Z,-0.70
2018-03-02T05:15:54.004Z,-0.70
2018-03-02T05:18:31.876Z,-0.70
2018-03-02T05:21:05.899Z,-0.70
2018-03-02T05:23:40.802Z,-0.80
2018-03-02T05:26:13.186Z,-0.80
2018-03-02T05:28:42.412Z,-0.80
2018-03-02T05:31:13.423Z,-0.70
2018-03-02T05:33:41.993Z,-0.80
2018-03-02T05:36:12.334Z,-0.80
2018-03-02T05:38:48.619Z,-0.80
2018-03-02T05:41:17.204Z,-0.80
2018-03-02T05:43:45.502Z,-0.80
2018-03-02T05:46:14.391Z,-0.80
2018-03-02T05:48:46.189Z,-0.80
2018-03-02T05:51:16.005Z,-0.80
2018-03-02T05:53:45.947Z,-0.80
2018-03-02T05:56:14.244Z,-0.80
2018-03-02T05:58:42.523Z,-0.80
2018-03-02T06:01:10.811Z,-0.90
2018-03-02T06:04:00.802Z,-0.80
2018-03-02T06:06:29.968Z,-0.90
2018-03-02T06:08:59.487Z,-0.90
2018-03-02T06:11:31.350Z,-0.90
2018-03-02T06:14:04.159Z,-0.80
2018-03-02T06:16:32.478Z,-0.90
2018-03-02T06:19:01.011Z,-0.80
2018-03-02T06:21:30.460Z,-0.90
2018-03-02T06:23:59.800Z,-0.90
2018-03-02T06:26:30.092Z,-0.90
2018-03-02T06:29:03.057Z,-0.90
2018-03-02T06:31:40.744Z,-0.90
2018-03-02T06:34:51.896Z,-0.90
2018-03-02T06:37:21.897Z,-0.90
2018-03-02T06:39:52.839Z,-0.90
2018-03-02T06:42:27.320Z,-0.90
2018-03-02T06:45:04.793Z,-0.90
2018-03-02T06:47:56.167Z,-0.90
2018-03-02T06:50:24.831Z,-0.90
2018-03-02T06:52:53.317Z,-1.00
2018-03-02T06:55:24.055Z,-1.00
2018-03-02T06:57:57.314Z,-0.90
2018-03-02T07:00:29.833Z,-0.90
2018-03-02T07:07:00.784Z,-1.00
2018-03-02T07:09:29.862Z,-1.00
2018-03-02T07:11:58.344Z,-1.00
2018-03-02T07:14:31.904Z,-1.00
2018-03-02T07:17:07.921Z,-0.90
2018-03-02T07:19:40.940Z,-0.90
2018-03-02T07:22:09.453Z,-1.00
2018-03-02T07:24:38.959Z,-0.90
2018-03-02T07:27:07.275Z,-0.90
2018-03-02T07:29:35.619Z,-0.90
2018-03-02T07:32:05.663Z,-0.90
2018-03-02T07:34:55.916Z,-1.00
2018-03-02T07:37:27.234Z,-0.90
2018-03-02T07:39:55.523Z,-0.90
2018-03-02T07:42:25.106Z,-0.90
2018-03-02T07:44:59.993Z,-0.90
2018-03-02T07:47:32.012Z,-1.00
2018-03-02T07:50:21.602Z,-0.90
2018-03-02T07:52:50.198Z,-0.90
2018-03-02T07:55:19.334Z,-0.90
2018-03-02T07:57:53.614Z,-0.90
2018-03-02T08:00:21.912Z,-0.90
2018-03-02T08:02:50.210Z,-0.90
2018-03-02T08:05:42.454Z,-0.90
2018-03-02T08:08:12.320Z,-0.90
2018-03-02T08:10:47.869Z,-1.00
2018-03-02T08:13:16.174Z,-1.00
2018-03-02T08:15:44.841Z,-1.00
2018-03-02T08:18:13.782Z,-1.00
2018-03-02T08:20:43.733Z,-0.90
2018-03-02T08:23:12.741Z,-0.90
2018-03-02T08:25:47.284Z,-1.00
2018-03-02T08:28:21.410Z,-1.00
2018-03-02T08:30:50.726Z,-1.00
2018-03-02T08:33:19.022Z,-1.00
2018-03-02T08:35:47.369Z,-0.90
2018-03-02T08:38:16.428Z,-0.90
2018-03-02T08:40:46.234Z,-1.00
2018-03-02T08:43:16.502Z,-1.00
2018-03-02T08:45:45.763Z,-0.90
2018-03-02T08:48:17.254Z,-0.90
2018-03-02T08:50:45.530Z,-0.90
2018-03-02T08:53:14.332Z,-1.00
2018-03-02T08:55:43.448Z,-1.00
2018-03-02T08:58:19.039Z,-1.00
2018-03-02T09:00:54.149Z,-1.10
2018-03-02T09:03:25.765Z,-1.00
2018-03-02T09:05:57.297Z,-1.10
2018-03-02T09:08:26.345Z,-1.10
2018-03-02T09:10:54.634Z,-1.10
2018-03-02T09:13:24.543Z,-1.10
2018-03-02T09:15:54.136Z,-1.10
2018-03-02T09:18:25.395Z,-1.10
2018-03-02T09:20:55.811Z,-1.20
2018-03-02T09:23:35.939Z,-1.20
2018-03-02T09:26:12.292Z,-1.20
2018-03-02T09:28:46.278Z,-1.20
2018-03-02T09:31:16.884Z,-1.20
2018-03-02T09:33:48.092Z,-1.20
2018-03-02T09:36:18.377Z,-1.10
2018-03-02T09:38:47.891Z,-1.20
2018-03-02T09:41:16.954Z,-1.10
2018-03-02T09:43:45.834Z,-1.10
2018-03-02T09:46:20.723Z,-1.20
2018-03-02T09:48:51.619Z,-1.10
2018-03-02T09:51:20.246Z,-1.20
2018-03-02T09:53:49.487Z,-1.20
2018-03-02T09:56:17.796Z,-1.10
2018-03-02T09:58:46.223Z,-1.10
2018-03-02T10:01:19.472Z,-1.10
2018-03-02T10:03:54.404Z,-1.10
2018-03-02T10:06:29.051Z,-1.10
2018-03-02T10:08:58.637Z,-1.10
2018-03-02T10:11:26.930Z,-1.20
2018-03-02T10:13:55.247Z,-1.10
2018-03-02T10:16:23.575Z,-1.10
2018-03-02T10:18:53.290Z,-1.10
2018-03-02T10:21:45.962Z,-1.10
2018-03-02T10:24:15.058Z,-1.20
2018-03-02T10:26:43.379Z,-1.30
2018-03-02T10:29:15.993Z,-1.20
2018-03-02T10:31:48.720Z,-1.20
2018-03-02T10:34:24.556Z,-1.20
2018-03-02T10:36:59.904Z,-1.20
2018-03-02T10:39:35.947Z,-1.20
2018-03-02T10:42:04.269Z,-1.10
2018-03-02T10:44:32.547Z,-1.20
2018-03-02T10:47:00.861Z,-1.30
2018-03-02T10:49:29.164Z,-1.20
2018-03-02T10:52:05.344Z,-1.20
2018-03-02T10:54:34.214Z,-1.20
2018-03-02T10:57:02.502Z,-1.20
2018-03-02T10:59:31.739Z,-1.20
2018-03-02T11:02:07.254Z,-1.20
2018-03-02T11:04:36.103Z,-1.20
2018-03-02T11:07:04.562Z,-1.20
2018-03-02T11:09:33.559Z,-1.20
2018-03-02T11:12:06.022Z,-1.20
2018-03-02T11:14:37.174Z,-1.30
2018-03-02T11:17:05.454Z,-1.20
2018-03-02T11:19:34.451Z,-1.30
2018-03-02T11:22:09.635Z,-1.20
2018-03-02T11:24:37.912Z,-1.20
2018-03-02T11:27:06.208Z,-1.20
2018-03-02T11:29:40.972Z,-1.20
2018-03-02T11:32:12.571Z,-1.20
2018-03-02T11:34:44.616Z,-1.30
2018-03-02T11:37:19.226Z,-1.40
2018-03-02T11:39:54.256Z,-1.40
2018-03-02T11:42:28.832Z,-1.50
2018-03-02T11:45:04.313Z,-1.40
2018-03-02T11:47:37.718Z,-1.40
2018-03-02T11:50:06.250Z,-1.40
2018-03-02T11:52:35.092Z,-1.40
2018-03-02T11:55:06.141Z,-1.30
2018-03-02T11:57:34.458Z,-1.30
2018-03-02T12:00:03.124Z,-1.30
2018-03-02T12:02:37.728Z,-1.40
2018-03-02T12:05:09.293Z,-1.40
2018-03-02T12:07:42.481Z,-1.40
2018-03-02T12:10:10.784Z,-1.40
2018-03-02T12:12:39.322Z,-1.40
2018-03-02T12:15:07.618Z,-1.40
2018-03-02T12:17:38.684Z,-1.40
2018-03-02T12:20:07.864Z,-1.40
2018-03-02T12:22:42.088Z,-1.50
2018-03-02T12:25:15.120Z,-1.40
2018-03-02T12:27:50.040Z,-1.40
2018-03-02T12:30:22.974Z,-1.30
2018-03-02T12:32:51.254Z,-1.30
2018-03-02T12:35:19.799Z,-1.30
2018-03-02T12:37:48.411Z,-1.30
2018-03-02T12:40:17.925Z,-1.30
2018-03-02T12:42:48.239Z,-1.30
2018-03-02T12:45:16.848Z,-1.30
2018-03-02T12:47:45.421Z,-1.30
2018-03-02T12:50:16.245Z,-1.30
2018-03-02T12:52:52.836Z,-1.30
2018-03-02T12:55:27.646Z,-1.20
2018-03-02T12:58:02.781Z,-1.20
2018-03-02T13:00:34.612Z,-1.20
2018-03-02T13:03:06.925Z,-1.20
2018-03-02T13:05:36.394Z,-1.20
2018-03-02T13:08:05.898Z,-1.20
2018-03-02T13:10:34.523Z,-1.20
2018-03-02T13:13:02.839Z,-1.20
2018-03-02T13:15:31.178Z,-1.20
2018-03-02T13:18:07.316Z,-1.10
2018-03-02T13:20:41.935Z,-1.10
2018-03-02T13:23:11.166Z,-1.20
2018-03-02T13:25:40.645Z,-1.10
2018-03-02T13:28:21.695Z,-1.10
2018-03-02T13:30:53.455Z,-1.10
2018-03-02T13:36:27.114Z,-1.20
2018-03-02T13:38:57.484Z,-1.20
2018-03-02T13:41:39.240Z,-1.30
2018-03-02T13:44:11.695Z,-1.20
2018-03-02T13:46:42.939Z,-1.20
2018-03-02T13:49:27.473Z,-1.20
2018-03-02T13:51:58.482Z,-1.20
2018-03-02T13:54:28.954Z,-1.20
2018-03-02T13:57:12.688Z,-1.10
2018-03-02T13:59:41.202Z,-1.10
2018-03-02T14:05:23.235Z,-1.00
2018-03-02T14:07:56.056Z,-1.00
2018-03-02T14:10:25.764Z,-1.00
2018-03-02T14:12:56.334Z,-1.00
2018-03-02T14:15:31.715Z,-0.90
2018-03-02T14:18:06.364Z,-0.90
2018-03-02T14:20:41.937Z,-0.90
2018-03-02T14:23:15.533Z,-0.90
2018-03-02T14:25:45.285Z,-0.90
2018-03-02T14:28:15.157Z,-0.90
2018-03-02T14:30:43.695Z,-0.90
2018-03-02T14:33:12.576Z,-0.80
2018-03-02T14:35:43.353Z,-0.70
2018-03-02T14:38:17.176Z,-0.70
2018-03-02T14:41:07.590Z,-0.80
2018-03-02T14:43:35.960Z,-0.60
2018-03-02T14:46:04.647Z,-0.50
2018-03-02T14:48:35.871Z,-0.70
2018-03-02T14:51:09.087Z,-0.70
2018-03-02T14:53:37.873Z,-0.60
2018-03-02T14:56:06.776Z,-0.50
2018-03-02T14:58:37.189Z,-0.50
2018-03-02T15:01:05.543Z,-0.40
2018-03-02T15:03:33.899Z,-0.50
2018-03-02T15:06:04.198Z,-0.60
2018-03-02T15:08:33.270Z,-0.80
2018-03-02T15:11:01.567Z,-0.80
2018-03-02T15:13:30.678Z,-0.70
2018-03-02T15:15:59.468Z,-0.70
2018-03-02T15:18:28.346Z,-0.70
2018-03-02T15:20:56.646Z,-0.70
2018-03-02T15:23:24.952Z,-0.70
2018-03-02T15:25:54.808Z,-0.60
2018-03-02T15:28:24.438Z,-0.60
2018-03-02T15:30:55.507Z,-0.60
2018-03-02T15:33:28.502Z,-0.60
2018-03-02T15:35:57.762Z,-0.70
2018-03-02T15:38:26.043Z,-0.80
2018-03-02T15:41:02.777Z,-0.80
2018-03-02T15:43:31.481Z,-0.70
2018-03-02T15:46:00.227Z,-0.70
2018-03-02T15:48:28.546Z,-0.70
2018-03-02T15:50:57.398Z,-0.70
2018-03-02T15:53:26.402Z,-0.60
2018-03-02T15:56:38.469Z,-0.50
2018-03-02T15:59:14.059Z,-0.60
2018-03-02T16:01:45.076Z,-0.50
2018-03-02T16:04:13.644Z,-0.60
2018-03-02T16:06:42.031Z,-0.70
2018-03-02T16:09:10.328Z,-0.80
2018-03-02T16:11:39.561Z,-0.80
2018-03-02T16:14:08.135Z,-0.80
2018-03-02T16:16:36.835Z,-0.90
2018-03-02T16:19:10.860Z,-0.90
2018-03-02T16:21:45.812Z,-0.90
2018-03-02T16:24:21.550Z,-1.00
2018-03-02T16:26:54.457Z,-1.00
2018-03-02T16:29:24.513Z,-1.10
2018-03-02T16:32:01.548Z,-1.10
2018-03-02T16:34:34.743Z,-1.10
2018-03-02T16:37:07.360Z,-1.20
2018-03-02T16:39:36.464Z,-1.10
2018-03-02T16:42:06.293Z,-1.20
2018-03-02T16:44:34.792Z,-1.20
2018-03-02T16:47:06.979Z,-1.20
2018-03-02T16:49:39.504Z,-1.30
2018-03-02T16:52:08.139Z,-1.30
2018-03-02T16:54:36.423Z,-1.30
2018-03-02T16:57:12.642Z,-1.30
2018-03-02T16:59:40.933Z,-1.20
2018-03-02T17:02:15.722Z,-1.20
2018-03-02T17:04:45.636Z,-1.20
2018-03-02T17:07:20.864Z,-1.30
2018-03-02T17:09:52.098Z,-1.30
2018-03-02T17:12:32.854Z,-1.30
2018-03-02T17:15:07.974Z,-1.40
2018-03-02T17:17:44.154Z,-1.50
2018-03-02T17:20:18.616Z,-1.40
2018-03-02T17:22:47.100Z,-1.50
2018-03-02T17:25:21.976Z,-1.40
2018-03-02T17:27:56.616Z,-1.50
2018-03-02T17:30:30.492Z,-1.50
2018-03-02T17:33:00.144Z,-1.50
2018-03-02T17:35:38.142Z,-1.50
2018-03-02T17:38:15.114Z,-1.50
2018-03-02T17:40:44.157Z,-1.50
2018-03-02T17:43:19.133Z,-1.50
2018-03-02T17:45:51.986Z,-1.40
2018-03-02T17:48:26.486Z,-1.40
2018-03-02T17:50:59.059Z,-1.40
2018-03-02T17:53:30.685Z,-1.40
2018-03-02T17:56:03.901Z,-1.40
2018-03-02T17:58:54.188Z,-1.40
2018-03-02T18:01:22.491Z,-1.40
2018-03-02T18:03:51.505Z,-1.40
2018-03-02T18:06:22.374Z,-1.40
2018-03-02T18:08:51.104Z,-1.40
2018-03-02T18:11:20.517Z,-1.40
2018-03-02T18:13:53.312Z,-1.30
2018-03-02T18:16:21.622Z,-1.30
2018-03-02T18:18:51.824Z,-1.30
2018-03-02T18:21:21.163Z,-1.30
2018-03-02T18:23:52.353Z,-1.30
2018-03-02T18:26:21.652Z,-1.40
2018-03-02T18:29:08.208Z,-1.30
2018-03-02T18:31:37.494Z,-1.40
2018-03-02T18:34:13.069Z,-1.30
2018-03-02T18:36:48.493Z,-1.30
2018-03-02T18:39:23.411Z,-1.30
2018-03-02T18:41:54.461Z,-1.30
2018-03-02T18:44:32.750Z,-1.20
2018-03-02T18:47:07.024Z,-1.20
2018-03-02T18:49:43.651Z,-1.20
2018-03-02T18:52:15.754Z,-1.20
2018-03-02T18:54:47.980Z,-1.20
2018-03-02T18:57:18.611Z,-1.10
2018-03-02T18:59:54.193Z,-1.10
2018-03-02T19:02:23.133Z,-1.10
2018-03-02T19:04:53.382Z,-1.10
2018-03-02T19:07:23.657Z,-1.10
2018-03-02T19:09:52.993Z,-1.10
2018-03-02T19:12:25.831Z,-1.10
2018-03-02T19:15:03.732Z,-1.10
2018-03-02T19:17:32.036Z,-1.00
2018-03-02T19:20:02.778Z,-1.00
2018-03-02T19:22:31.774Z,-1.00
2018-03-02T19:25:00.865Z,-1.00
2018-03-02T19:27:30.457Z,-1.00
2018-03-02T19:30:01.339Z,-1.00
2018-03-02T19:32:34.106Z,-0.90
2018-03-02T19:35:07.149Z,-0.90
2018-03-02T19:37:38.762Z,-0.90
2018-03-02T19:40:07.067Z,-1.00
2018-03-02T19:42:35.940Z,-0.90
2018-03-02T19:45:08.863Z,-0.90
2018-03-02T19:47:40.818Z,-0.90
2018-03-02T19:50:10.635Z,-0.90
2018-03-02T19:52:39.757Z,-0.80
2018-03-02T19:55:09.636Z,-0.80
2018-03-02T19:57:40.920Z,-0.80
2018-03-02T20:00:13.755Z,-0.80
2018-03-02T20:02:42.347Z,-0.80
2018-03-02T20:05:12.400Z,-0.90
2018-03-02T20:07:43.470Z,-0.80
2018-03-02T20:10:18.242Z,-0.80
2018-03-02T20:12:47.761Z,-0.90
2018-03-02T20:15:23.333Z,-0.80
2018-03-02T20:18:14.299Z,-0.90
2018-03-02T20:20:46.870Z,-0.80
2018-03-02T20:23:15.180Z,-0.80
2018-03-02T20:25:45.215Z,-0.70
2018-03-02T20:28:16.247Z,-0.70
2018-03-02T20:30:49.902Z,-0.70
2018-03-02T20:33:40.769Z,-0.60
2018-03-02T20:36:10.320Z,-0.60
2018-03-02T20:38:40.107Z,-0.60
2018-03-02T20:41:10.053Z,-0.60
2018-03-02T20:43:38.760Z,-0.60
2018-03-02T20:46:07.429Z,-0.60
2018-03-02T20:48:39.673Z,-0.50
2018-03-02T20:51:09.657Z,-0.50
2018-03-02T20:53:38.334Z,-0.50
2018-03-02T20:56:10.363Z,-0.60
2018-03-02T20:58:42.011Z,-0.50
2018-03-02T21:01:12.042Z,-0.60
2018-03-02T21:04:02.235Z,-0.60
2018-03-02T21:06:31.761Z,-0.50
2018-03-02T21:09:00.971Z,-0.50
2018-03-02T21:11:36.480Z,-0.50
2018-03-02T21:14:05.308Z,-0.50
2018-03-02T21:16:40.831Z,-0.50
2018-03-02T21:19:10.334Z,-0.50
2018-03-02T21:21:42.597Z,-0.50
2018-03-02T21:24:16.044Z,-0.50
2018-03-02T21:26:47.221Z,-0.40
2018-03-02T21:29:21.759Z,-0.40
2018-03-02T21:31:53.845Z,-0.40
2018-03-02T21:34:43.682Z,-0.40
2018-03-02T21:37:13.321Z,-0.30
2018-03-02T21:39:42.171Z,-0.30
2018-03-02T21:42:11.118Z,-0.40
2018-03-02T21:44:47.250Z,-0.30
2018-03-02T21:47:20.098Z,-0.30
2018-03-02T21:50:09.608Z,-0.30
2018-03-02T21:52:37.932Z,-0.30
2018-03-02T21:55:06.233Z,-0.30
2018-03-02T21:57:38.306Z,-0.30
2018-03-02T22:00:06.850Z,-0.30
2018-03-02T22:02:40.681Z,-0.30
2018-03-02T22:05:15.554Z,-0.30
2018-03-02T22:07:46.252Z,-0.20
2018-03-02T22:10:14.927Z,-0.20
2018-03-02T22:12:48.028Z,-0.20
2018-03-02T22:15:16.318Z,-0.30
2018-03-02T22:17:45.851Z,-0.20
2018-03-02T22:20:42.975Z,-0.20
2018-03-02T22:23:12.559Z,-0.20
2018-03-02T22:25:44.035Z,-0.20
2018-03-02T22:28:17.688Z,-0.10
2018-03-02T22:30:47.711Z,-0.20
2018-03-02T22:33:16.009Z,-0.20
2018-03-02T22:35:44.364Z,-0.10
2018-03-02T22:38:12.657Z,-0.10
2018-03-02T22:40:41.531Z,-0.10
2018-03-02T22:43:16.799Z,0.00
2018-03-02T22:45:45.071Z,0.00
2018-03-02T22:48:18.056Z,0.00
2018-03-02T22:50:50.315Z,-0.10
2018-03-02T22:53:24.720Z,-0.10
2018-03-02T22:55:58.426Z,0.00
2018-03-02T22:58:32.243Z,-0.10
2018-03-02T23:01:01.746Z,-0.10
2018-03-02T23:03:30.217Z,-0.10
2018-03-02T23:06:23.136Z,-0.10
2018-03-02T23:08:52.300Z,-0.10
2018-03-02T23:11:20.854Z,-0.10
2018-03-02T23:13:50.249Z,0.00
2018-03-02T23:16:19.301Z,0.10
2018-03-02T23:18:47.615Z,0.00
2018-03-02T23:21:16.959Z,0.10
2018-03-02T23:23:49.968Z,0.00
2018-03-02T23:26:20.784Z,0.00
2018-03-02T23:28:53.914Z,0.00
2018-03-02T23:31:22.214Z,0.10
2018-03-02T23:33:51.837Z,0.00
2018-03-02T23:36:20.821Z,0.10
2018-03-02T23:38:53.351Z,0.10
2018-03-02T23:41:21.884Z,0.10
2018-03-02T23:43:52.212Z,0.00
2018-03-02T23:46:27.039Z,0.00
2018-03-02T23:49:03.147Z,0.10
2018-03-02T23:51:35.050Z,0.00
2018-03-02T23:54:10.731Z,0.20
2018-03-02T23:56:39.610Z,0.20
2018-03-02T23:59:15.039Z,0.10
